Página principal
METAR-TAF:

METAR-TAF

Aeroportos :

Aeroporto Internacional do Bahrain

Bahrein, Bahrein

latitude: 26-16N, longitude: 050-39E, altura: 2 m

Observação actual do tempo

O boletim foi feito há 24 minutos, às 14:00 UTC
Vento 13 kt de noroeste
Temperatura 36°C
Humidade 53%
Pressão 999 hPa
Visibilidade 10 km ou mais
sem nuvens abaixo de 1500 metros e sem cumulonimbus

METAR: OBBI 201400Z 32013KT CAVOK 36/25 Q0999 NOSIG

Hora: 17:24 (14:24 UTC)

Previsão

O boletim foi feito há 3 horas e 24 minutos, às 11:00 UTC
Previsão válida de 20 às 12 UTC a 21 às 18 UTC
Vento 12 kt de nor-noroeste
Visibilidade 10 km ou mais
sem nuvens abaixo de 1500 metros e sem cumulonimbus
Tornando-se
de 20 às 16 UTC a 20 às 18 UTC
Vento 5 kt de oeste
Tornando-se
de 21 às 04 UTC a 21 às 06 UTC
Vento 10 kt de nor-noroeste

TAF: OBBI 201100Z 2012/2118 33012KT CAVOK BECMG 2016/2018 27005KT BECMG 2104/2106 33010KT

Observações e previsões do tempo de mais de 4000 aeroportos (mensagens METAR e TAF).

As estações disponíveis são os pontos amarelos e vermelhos sobre o mapa.

Mova o rato sobre o mapa para ver o nome da estação.

Depois clique no ponto para visualizar as observações e previsões meteorológicas.

Para alterar o mapa : clique nos botões verdes com uma cruz preta para aumentar o zoom; no botão verde com uma pitada de zoom; ou nas setas verdes para mapas adjacentes.


METAR-TAF: